Tri Ferris Super Sprint 2016
Skip Navigation Links
08 May 2016
HyperLink
Pos
Bib No
Fav
Share
Print
Name
Time
Category
Cat Pos
Gender
Gen Pos
Club
Wave
Swim
G/Pos
T1
Cycle
G/Pos
T2
Run
G/Pos
1265Jordan FRAPWELL00:50:51.0D1Male1 08:1300:05:35.4200:00:37.100:28:16.2300:00:39.800:15:42.33
2369Ben PRICE00:52:31.2G1Male2KINETIC ONE08:2300:07:23.86300:01:01.800:28:34.3400:00:33.300:14:57.91
3337Martin PALMER00:52:33.5G2Male3 08:2300:07:33.86800:00:50.800:27:34.6200:00:37.600:15:56.64
4286Philip Kruse00:53:15.1H1Male4SWIMPODIUM08:1800:06:45.72900:00:43.200:28:59.0900:00:37.200:16:09.85
5236George HUGHES00:54:03.2E1Male5CHELTENHAM TRIATHLON CLUB08:1300:05:58.4800:00:56.300:29:33.91900:00:29.000:17:05.414
6355Richard EASTON00:54:08.4G3Male6PURE ENDURANCE TRIATHLETES08:2300:05:53.3600:00:56.300:28:54.7800:00:35.100:17:48.928
7230Ian BARRETT00:54:16.4I1Male7CIRENCESTER TRIATHLON CLUB08:1300:07:06.74200:01:03.300:28:59.71000:00:37.900:16:28.76
8100Nicole WALTERS00:54:18.5E1Female1BW CYCLING08:0000:05:54.2200:00:40.700:28:49.7100:00:36.700:18:17.04
9185Martin ROGERS00:54:27.3J1Male8BOS ACADEMY08:0800:06:31.01600:00:51.300:29:24.91700:00:39.600:17:00.213
10304Laurence HEWETSON00:54:41.1H2Male9BADTRI08:1800:06:38.22400:01:06.900:28:54.0700:00:49.600:17:12.317
11268Alexander JONES00:54:47.7D2Male10 08:1300:06:04.7900:00:47.800:30:11.32900:00:34.700:17:09.016
12309Trevor BATEY00:54:55.6H3Male11RAF TRIATHLON08:1800:07:08.14500:00:40.800:29:08.11300:00:34.500:17:23.921
13190Jack SHAYLER00:55:01.9C1Male12SOUTH CENTRAL ACADEMY08:0800:05:50.2500:00:53.400:30:53.54400:00:40.400:16:44.17
14239Rob BURGESS00:55:09.3E2Male13BATH AMPHIBIANS08:1300:06:47.73100:01:20.700:29:11.81400:00:51.200:16:57.810
15250Jonathan DAVIES00:55:30.6E3Male14BADTRI08:1300:05:48.7400:00:46.000:31:10.55100:00:37.200:17:08.015
16221Russell CLASH00:55:42.5I2Male15 08:1300:06:11.01000:01:20.600:29:20.31500:00:50.400:17:59.933
17370Adam GILES00:56:00.3G4Male16 08:2300:06:32.21800:00:44.800:30:54.74500:00:29.100:17:19.419
18240Chris EMMERSON00:56:10.5E4Male17BADTRI08:1300:07:19.85600:01:18.800:29:04.71200:01:00.400:17:26.622
19177david NIELD00:56:13.7J2Male18TTG/TEAM PASSION FIT08:0800:07:22.06100:01:11.100:29:39.12100:00:33.200:17:28.123
20388Will POOLE00:56:16.2F1Male19BADTRI08:2300:06:56.33300:00:41.800:29:56.62500:00:43.800:17:57.632
21361Luke REED00:56:19.1G5Male20PURE ENDURANCE TRIATHLETES08:2300:06:38.12300:01:00.200:30:36.63500:00:33.100:17:30.924
22285jamie LYAKK00:56:24.6H4Male21EVESHAM VALE TRIATHLETES08:1800:06:40.32500:00:47.500:30:18.33200:00:33.900:18:04.435
23187Jake SMITH00:56:31.1C2Male22NI TRI08:0800:07:02.43600:02:00.700:31:55.87200:00:29.700:15:02.42
24362Ben ASHWELL00:56:38.6G6Male23NATIONWIDE TRIATHLON CLUB08:2300:07:04.84000:00:39.700:30:20.03300:00:37.300:17:56.630
25163Richard SEARLE00:56:41.7J3Male24 08:0800:05:56.1700:01:04.600:30:45.44000:00:58.800:17:56.631
2651Alys MATHEW00:56:42.8G1Female2CLAPHAM CHASERS08:0000:07:13.61400:00:47.100:30:06.1200:00:40.800:17:54.93
27216Gary SMITH00:56:43.4I3Male25 08:1300:08:19.311600:01:16.900:28:36.8500:00:51.600:17:38.726
28379Neil BENNETT00:56:58.5F2Male26TEAM PASSION FIT08:2300:06:42.82600:01:06.100:29:41.72200:00:45.600:18:42.250
29212Alistair CUTHBERT00:57:15.5I4Male27 08:1300:07:08.14400:00:45.100:29:51.32400:00:55.600:18:35.448
30196Neil KERFOOT00:57:43.5I5Male28KINGSWOOD TRI08:1300:06:34.01900:00:41.700:30:16.73100:00:43.800:19:27.268
31359Austin PACKER00:57:45.5G7Male29CHELTENHAM TRIATHLON CLUB08:2300:07:33.26700:01:11.500:29:49.62300:00:37.500:18:33.646
32154Andrew CONRADI00:57:46.0J4Male30 08:0800:08:38.413600:01:03.300:29:30.81800:00:30.500:18:02.834
33188Harry BUTTLE00:57:56.0C3Male31DORSET PENTATHLETES08:0800:05:21.2100:00:59.100:32:53.49000:00:29.800:18:12.437
34246Tommy BRIDEWELL00:58:00.0E5Male32 08:1300:06:44.82800:01:26.100:30:44.53800:00:46.900:18:17.540
35233Liam DIXON00:58:01.1I6Male33RUN SWINDON08:1300:06:55.13200:00:41.600:29:36.52000:00:33.900:20:13.995
36189Ollie CAUTE00:58:10.8C4Male34N1 TRI CLUB08:0800:06:32.01700:02:15.600:30:51.84300:00:49.400:17:41.827
37391Andrew BOSMAN00:58:22.4F3Male35 08:2300:07:21.86000:00:43.300:32:45.88700:00:38.600:16:52.69
38173Adrian WILKINS00:58:36.0J5Male36BADTRI08:0800:06:29.31500:00:47.500:30:59.04600:00:38.500:19:41.477
39398Mathew BISSETT00:58:38.3F4Male37CHELTENHAM TRIATHLON CLUB08:2300:07:37.17100:00:59.000:30:39.93600:00:54.400:18:27.943
40157Jez PRESTON-JONES00:58:38.5J6Male38CHELTENHAM TRIATHLON CLUB08:0800:07:01.63500:00:55.000:30:02.02700:00:38.400:20:01.387
41364Gethin MUSK00:58:47.3G8Male39CIRENCESTER TRIATHLON CLUB08:2300:07:20.05700:01:01.300:29:02.41100:00:50.500:20:32.9111
42312Ben NORMAN00:58:58.3H5Male40HEREFORD TRI CLUB08:1800:07:42.27200:01:24.800:31:37.76200:00:53.200:17:20.420
43384Steven CATHCART00:59:09.2F5Male41 08:2300:06:59.93400:01:18.000:31:21.45600:01:01.000:18:28.844
44144John MARRIOTT00:59:16.7J7Male42TEAM KENNET08:0800:07:09.54600:01:17.800:30:32.43400:00:49.200:19:27.669
45182Richard WALTERS00:59:19.8J8Male43BRECON TRIATHLON CLUB08:0800:08:08.110000:00:59.000:31:17.05400:00:45.600:18:09.836
46272stuart BARR00:59:26.0H6Male44CHELTENHAM TRIATHLON CLUB08:1800:07:14.14900:00:59.600:30:15.13000:01:00.000:19:57.185
47223Sam KENON00:59:37.3I7Male45FLYINGMONK TRIATHLON CLUB08:1300:07:06.54100:00:45.800:31:55.77100:00:44.400:19:04.758
4810Sara NORTHOVER00:59:46.2J1Female3TRIKS08:0000:06:33.8800:01:00.300:32:01.5500:00:43.400:19:27.07
49392Tom MORETON00:59:47.6F6Male46 08:2300:08:44.014400:01:11.700:31:23.55900:00:54.900:17:33.425
50316terry JERVIS00:59:48.9H7Male47 08:1800:08:18.211300:01:16.600:32:22.27600:00:52.200:16:59.512
51165Richard PHILLIPS00:59:50.7J9Male48THORNBURY RC08:0800:06:13.31100:00:57.400:30:40.03700:00:41.900:21:17.9134
5224Dorothy LIVIABELLA01:00:00.5I1Female4STROUD & DISTRICT AC08:0000:07:11.01300:00:58.500:31:38.3300:00:45.600:19:27.06
53292Gareth CASE01:00:01.1H8Male49SWINDON TRIATHLON CLUB08:1800:07:43.27300:00:47.000:31:13.95300:00:46.900:19:29.970
54152Ian MOORE01:00:05.0J10Male50CYCLOGY BIKES08:0800:08:24.912200:01:01.500:30:09.02800:00:58.600:19:30.772
55126Alan KERR01:00:09.7K1Male51PENCOED TRI CLUB08:0800:07:17.35200:01:01.700:32:42.98500:00:51.800:18:15.839
56372James MADELAINE01:00:15.2G9Male52 08:2300:06:36.52100:01:46.300:33:03.710000:00:57.800:17:50.729
57229Russ TURNER01:00:24.5I8Male53PAC TRI08:1300:07:27.56500:02:07.900:30:46.44100:01:02.700:18:59.854
58263Robert SANSBY01:00:24.6D3Male54LOUGHBOROUGH STUDENTS TRIATHLON CLUB08:1300:05:44.9300:01:02.200:32:06.47300:00:44.500:20:46.4120
59215Rich GRIFFITHS01:00:26.5I9Male55WANBOROUGH TRI CLUB08:1300:08:27.912600:01:18.700:28:50.0600:01:00.000:20:49.7122
60181Jonathan Miller01:00:27.8J11Male56WANBOROUGH TRI CLUB08:0800:06:18.11200:01:22.900:30:45.03900:00:54.300:21:07.4130
61171Paul SHEPHARD01:00:34.0J12Male57 08:0800:06:20.01300:00:54.200:33:37.411600:00:40.700:19:01.656
62193Nick ESCRITT01:00:35.0I10Male58BADTRI08:1300:07:03.93700:01:06.700:31:01.15000:00:45.700:20:37.4113
63178Peter GILBERT01:00:37.8J13Male59SWINDON TRIATHLON CLUB08:0800:08:04.69600:00:52.300:31:42.06500:00:38.200:19:20.565
64112Flora JOHNSON01:00:50.3C1Female5DORSET PENTATHLETES08:0000:06:18.5300:00:57.700:32:52.6900:00:35.600:20:05.69
65366Greg WOOD01:00:51.6G10Male60HEREFORD TRI CLUB08:2300:08:43.814300:01:36.700:32:58.39800:00:43.800:16:48.88
66402Richard WALKLATE01:00:54.4F7Male61CHELTENHAM TRIATHLON CLUB08:2300:07:09.84700:00:50.500:31:42.96600:00:39.600:20:31.5110
67174Stephen BARKER01:01:00.9J14Male62 08:0800:07:18.35300:01:06.500:31:41.96400:01:03.600:19:50.383
68371Paul ARCHER01:01:01.5G11Male63NATIONWIDE TRIATHLON CLUB08:2300:08:46.414700:01:03.900:31:55.67000:00:50.200:18:25.142
69111Florence SWAN01:01:20.7C2Female6CYCLE LIFE08:0000:06:19.8400:00:34.100:33:30.11100:00:48.100:20:08.410
70404Robert SINTON01:01:35.6F8Male64 08:2300:07:21.05800:01:05.700:33:59.512600:00:47.700:18:21.641
71245Lewis ROBERTS01:01:37.4E6Male65 08:1300:07:21.65900:02:01.200:33:46.111800:01:10.800:17:17.518
72399Simon HAIGHTON01:01:39.7F9Male66 08:2300:08:01.99200:01:34.500:31:23.15800:00:52.300:19:47.882
73134Jon PHILLIPS01:01:40.2K2Male67PEMBS TRI08:0800:07:29.26600:01:58.900:30:59.44700:00:51.100:20:21.5103
74341Nathan TREBY01:01:44.3G12Male68BADTRI08:2300:06:47.03000:01:19.700:32:21.07500:00:55.200:20:21.1101
75264Jack ESCRITT01:01:46.2D4Male69 08:1300:07:04.63900:01:32.600:33:14.510400:00:30.800:19:23.567
76258Robert OGDEN01:01:47.5E7Male70BADTRI08:1300:06:22.21400:01:05.200:32:44.08600:01:05.200:20:30.6109
77141Lewis SAUNDERS01:01:51.1K3Male71STROUD VALLEYS TRI08:0800:07:54.48400:01:50.400:30:51.14200:00:51.000:20:24.0104
78252Lee MCAFEE01:01:51.1E8Male72ARMY TRI ASSOCIATION08:1300:08:04.29500:01:37.400:31:12.85200:00:43.200:20:13.494
793Shirley YARDE01:01:52.0K1Female7 08:0000:06:31.2700:00:58.800:32:10.0600:00:50.600:21:21.320
80119Graham LE GOOD01:02:00.3L1Male73WITNEY ROAD RUNNERS08:0800:08:09.910300:00:59.300:32:57.69700:00:49.100:19:04.157
81192Julian BULLAS01:02:04.5I11Male74CHELTENHAM TRIATHLON CLUB08:1300:09:11.816900:01:10.500:29:24.01600:00:56.800:21:21.1139
82406Matt O'DONNELL01:02:05.6F10Male75BADTRI08:2300:06:43.92700:00:55.400:32:31.18000:00:43.100:21:12.0132
83237Daniel CASTLE01:02:08.7E9Male76HEREFORD TRI CLUB08:1300:08:06.59700:01:16.900:32:57.69600:00:49.400:18:58.153
84218Tony LIVIABELLA01:02:11.0I12Male77STROUD & DISTRICT AC08:1300:08:08.410100:01:11.100:33:36.911500:01:01.000:18:13.438
85238Adam MCDONNELL01:02:14.0E10Male78 08:1301:02:14.0
8646Debs PRATLEY01:02:35.6G2Female8RAF TRIATHLON08:0000:06:55.11200:00:49.000:33:41.11200:00:53.400:20:16.912
87148Steve DERRICK01:02:43.9J15Male79CORINIUM CYCLING CLUB08:0800:07:36.87000:01:19.600:32:11.47400:00:57.400:20:38.6114
88158david SCAMMELL01:02:48.4J16Male80 08:0800:07:52.28100:01:22.900:31:23.15700:00:49.300:21:20.7138
89149Andrew PARSONS01:02:51.8J17Male81BADTRI08:0800:07:15.45000:01:13.400:32:54.99200:00:45.900:20:42.0115
90109Gemma SHEPHERD01:02:56.1C3Female9 08:0000:07:14.51500:01:40.000:37:09.84100:00:32.100:16:19.51
91113India COOPER01:03:00.7C4Female10DORSET PENTATHLETES08:0000:05:37.1100:00:51.400:35:06.72100:00:29.900:20:55.418
92194Sean BROWNE01:03:01.6I13Male82 08:1300:06:36.32000:01:37.400:32:53.08900:01:03.700:20:51.0123
93360Matthew TIBBLES01:03:01.9G13Male83 08:2300:07:18.85500:01:55.300:31:34.56100:01:30.100:20:43.0117
94172Neil MULLINS01:03:09.2J18Male84 08:0800:06:37.62200:01:24.400:32:37.98400:00:50.300:21:38.8152
95146Mark WILKINS01:03:10.2J19Male85BADTRI08:0800:09:35.418300:01:28.300:31:55.46800:00:57.200:19:13.762
96325Team DURHAMS01:03:13.1R1Relay1 08:1800:08:59.4300:00:47.700:32:38.3100:00:34.800:20:12.62
97279david UNDERWOOD01:03:14.1H9Male86 08:1800:08:49.315300:01:21.800:31:55.56900:00:56.900:20:10.391
98317Phil TURBARD01:03:15.5H10Male87 08:1800:08:39.513700:01:37.500:32:29.87900:00:57.900:19:30.571
99170Michael DE VOIL01:03:21.5J20Male88 08:0800:08:55.816000:01:06.200:32:34.88300:01:02.800:19:41.778
100375Christopher RICKETTS01:03:22.1F11Male89 08:2300:08:42.714100:01:22.100:33:09.210100:01:01.000:19:06.959
Page 1 of 4 (375 items)
Prev
[1]
2
3
4
Next
fb

HyperLink Copyright (c) G Vincent, 2016